Strona główna
METAR-TAF:

METAR-TAF

Lotnisko :

Port lotniczy Edynburg

Edynburg, Szkocja

Szerokość geograficzna: 55-57N, Długość geograficzna: 003-21W, wysokość: 41 m

Aktualna obserwacja pogody

Raport powstał 25 minut temu, godzina 11:50 UTC
Wiatr 5 kt od zachód
Temperatura 7°C
Wilgotność 76%
Ciśnienie 1018 hPa
Widzialność 10 km lub więcej
Przerywane chmury na wysokości 2800 ft

METAR: EGPH 271150Z 26005KT 9999 BKN028 07/03 Q1018

czas: 12:15 (12:15 UTC)

Prognoza

Raport powstał 1 godzina i 21 minut temu, godzina 10:54 UTC
Prognoza ważna od 27 godzina 12 UTC do 28 godzina 12 UTC
Wiatr 3 kt z kierunków zmiennych
Widzialność 10 km lub więcej
Rozproszone chmury na wysokości 3500 ft
Prawdopodobieństwo 30% :
Przejściowo
od 27 godzina 18 UTC do 28 godzina 03 UTC
Widzialność: 6000 m
Prawdopodobieństwo 40% :
Przejściowo
od 28 godzina 03 UTC do 28 godzina 09 UTC
Widzialność: 4000 m
zamglenie

TAF: EGPH 271054Z 2712/2812 VRB03KT 9999 SCT035 PROB30 TEMPO 2718/2803 6000 PROB40 TEMPO 2803/2809 4000 BR

Obserwacja i prognoza pogody dla ponad 4000 lotnisk (raport METAR i TAF).

Dostępne stacje oznaczono żółtymi i czerwonymi punktami na mapie.

Najedź kursorem aby zobaczyć nazwę stacji.

Kliknij aby zobaczyć obserwacje i prognozy pogody.

Aby zmienić mapę: kliknij na zielony przycisk z czarnym krzyżykiem, aby powiększyć; na zielony przycisk z myślnikiem, aby pomniejszyć; na zielone strzałki, aby przejść do map sąsiednich.


METAR-TAF: